sensor_id;sensor_type;location;lat;lon;timestamp;P1;durP1;ratioP1;P2;durP2;ratioP2
23328;SDS011;11836;51.050;3.716;2023-05-10T00:01:23;1.45;;;1.15;;
23328;SDS011;11836;51.050;3.716;2023-05-10T00:03:49;1.50;;;1.23;;
23328;SDS011;11836;51.050;3.716;2023-05-10T00:06:14;1.70;;;1.17;;
23328;SDS011;11836;51.050;3.716;2023-05-10T00:08:40;2.88;;;1.48;;
23328;SDS011;11836;51.050;3.716;2023-05-10T00:11:06;1.90;;;1.30;;
23328;SDS011;11836;51.050;3.716;2023-05-10T00:13:32;1.70;;;1.20;;
23328;SDS011;11836;51.050;3.716;2023-05-10T00:15:59;1.45;;;1.20;;
23328;SDS011;11836;51.050;3.716;2023-05-10T00:18:24;1.95;;;1.50;;
23328;SDS011;11836;51.050;3.716;2023-05-10T00:20:50;1.33;;;1.23;;
23328;SDS011;11836;51.050;3.716;2023-05-10T00:23:16;1.90;;;1.35;;
23328;SDS011;11836;51.050;3.716;2023-05-10T00:25:42;1.92;;;1.40;;
23328;SDS011;11836;51.050;3.716;2023-05-10T00:28:07;1.38;;;1.27;;
23328;SDS011;11836;51.050;3.716;2023-05-10T00:30:33;1.92;;;1.20;;
23328;SDS011;11836;51.050;3.716;2023-05-10T00:32:59;2.25;;;1.50;;
23328;SDS011;11836;51.050;3.716;2023-05-10T00:35:25;1.88;;;1.30;;
23328;SDS011;11836;51.050;3.716;2023-05-10T00:37:51;2.03;;;1.40;;
23328;SDS011;11836;51.050;3.716;2023-05-10T00:40:16;2.17;;;1.30;;
23328;SDS011;11836;51.050;3.716;2023-05-10T00:42:42;1.45;;;1.17;;
23328;SDS011;11836;51.050;3.716;2023-05-10T00:45:08;2.30;;;1.38;;
23328;SDS011;11836;51.050;3.716;2023-05-10T00:47:34;1.58;;;1.42;;
23328;SDS011;11836;51.050;3.716;2023-05-10T00:50:00;1.45;;;1.17;;
23328;SDS011;11836;51.050;3.716;2023-05-10T00:52:27;1.65;;;1.42;;
23328;SDS011;11836;51.050;3.716;2023-05-10T00:54:53;1.60;;;1.50;;
23328;SDS011;11836;51.050;3.716;2023-05-10T00:57:20;2.17;;;1.35;;
23328;SDS011;11836;51.050;3.716;2023-05-10T00:59:46;1.73;;;1.33;;
23328;SDS011;11836;51.050;3.716;2023-05-10T01:02:12;1.60;;;1.40;;
23328;SDS011;11836;51.050;3.716;2023-05-10T01:04:38;1.55;;;1.35;;
23328;SDS011;11836;51.050;3.716;2023-05-10T01:07:04;1.73;;;1.38;;
23328;SDS011;11836;51.050;3.716;2023-05-10T01:09:30;2.65;;;1.80;;
23328;SDS011;11836;51.050;3.716;2023-05-10T01:11:57;1.60;;;1.30;;
23328;SDS011;11836;51.050;3.716;2023-05-10T01:14:24;1.60;;;1.50;;
23328;SDS011;11836;51.050;3.716;2023-05-10T01:16:51;1.70;;;1.60;;
23328;SDS011;11836;51.050;3.716;2023-05-10T01:19:28;2.22;;;1.63;;
23328;SDS011;11836;51.050;3.716;2023-05-10T01:30:27;1.75;;;1.63;;
23328;SDS011;11836;51.050;3.716;2023-05-10T01:47:08;2.42;;;2.08;;
23328;SDS011;11836;51.050;3.716;2023-05-10T01:49:42;2.45;;;1.70;;
23328;SDS011;11836;51.050;3.716;2023-05-10T01:52:13;2.17;;;1.80;;
23328;SDS011;11836;51.050;3.716;2023-05-10T01:54:55;2.90;;;1.70;;
23328;SDS011;11836;51.050;3.716;2023-05-10T01:57:32;2.55;;;1.83;;
23328;SDS011;11836;51.050;3.716;2023-05-10T02:00:02;2.15;;;1.95;;
23328;SDS011;11836;51.050;3.716;2023-05-10T02:02:30;2.40;;;1.98;;
23328;SDS011;11836;51.050;3.716;2023-05-10T02:05:10;2.42;;;2.22;;
23328;SDS011;11836;51.050;3.716;2023-05-10T02:07:41;2.63;;;1.85;;
23328;SDS011;11836;51.050;3.716;2023-05-10T02:10:08;1.65;;;1.55;;
23328;SDS011;11836;51.050;3.716;2023-05-10T02:12:36;1.85;;;1.65;;
23328;SDS011;11836;51.050;3.716;2023-05-10T02:15:04;1.90;;;1.80;;
23328;SDS011;11836;51.050;3.716;2023-05-10T02:17:32;2.60;;;2.00;;
23328;SDS011;11836;51.050;3.716;2023-05-10T02:19:59;2.30;;;2.10;;
23328;SDS011;11836;51.050;3.716;2023-05-10T02:22:27;2.92;;;2.20;;
23328;SDS011;11836;51.050;3.716;2023-05-10T02:24:57;2.30;;;1.95;;
23328;SDS011;11836;51.050;3.716;2023-05-10T02:27:25;3.05;;;1.90;;
23328;SDS011;11836;51.050;3.716;2023-05-10T02:29:52;2.88;;;1.73;;
23328;SDS011;11836;51.050;3.716;2023-05-10T02:32:19;1.95;;;1.75;;
23328;SDS011;11836;51.050;3.716;2023-05-10T02:34:47;1.98;;;1.83;;
23328;SDS011;11836;51.050;3.716;2023-05-10T02:37:16;1.73;;;1.52;;
23328;SDS011;11836;51.050;3.716;2023-05-10T02:39:44;1.92;;;1.70;;
23328;SDS011;11836;51.050;3.716;2023-05-10T02:42:13;3.00;;;2.22;;
23328;SDS011;11836;51.050;3.716;2023-05-10T02:44:45;2.60;;;2.00;;
23328;SDS011;11836;51.050;3.716;2023-05-10T02:47:13;1.98;;;1.60;;
23328;SDS011;11836;51.050;3.716;2023-05-10T02:49:38;1.98;;;1.77;;
23328;SDS011;11836;51.050;3.716;2023-05-10T02:52:05;2.15;;;1.85;;
23328;SDS011;11836;51.050;3.716;2023-05-10T02:54:37;3.40;;;2.17;;
23328;SDS011;11836;51.050;3.716;2023-05-10T02:57:08;2.10;;;1.90;;
23328;SDS011;11836;51.050;3.716;2023-05-10T02:59:40;2.28;;;2.08;;
23328;SDS011;11836;51.050;3.716;2023-05-10T03:02:10;1.77;;;1.67;;
23328;SDS011;11836;51.050;3.716;2023-05-10T03:04:36;2.47;;;2.10;;
23328;SDS011;11836;51.050;3.716;2023-05-10T03:07:02;1.98;;;1.77;;
23328;SDS011;11836;51.050;3.716;2023-05-10T03:09:28;2.15;;;1.90;;
23328;SDS011;11836;51.050;3.716;2023-05-10T03:15:00;2.53;;;2.30;;
23328;SDS011;11836;51.050;3.716;2023-05-10T03:17:40;2.40;;;1.90;;
23328;SDS011;11836;51.050;3.716;2023-05-10T03:20:08;2.00;;;1.80;;
23328;SDS011;11836;51.050;3.716;2023-05-10T03:22:50;2.00;;;1.80;;
23328;SDS011;11836;51.050;3.716;2023-05-10T03:25:21;2.13;;;1.92;;
23328;SDS011;11836;51.050;3.716;2023-05-10T03:27:47;2.92;;;2.08;;
23328;SDS011;11836;51.050;3.716;2023-05-10T03:30:14;1.92;;;1.67;;
23328;SDS011;11836;51.050;3.716;2023-05-10T03:32:41;2.20;;;1.88;;
23328;SDS011;11836;51.050;3.716;2023-05-10T03:35:10;2.05;;;1.70;;
23328;SDS011;11836;51.050;3.716;2023-05-10T03:37:38;2.70;;;2.17;;
23328;SDS011;11836;51.050;3.716;2023-05-10T03:40:04;2.42;;;2.13;;
23328;SDS011;11836;51.050;3.716;2023-05-10T03:42:31;2.00;;;1.80;;
23328;SDS011;11836;51.050;3.716;2023-05-10T03:44:56;2.08;;;1.85;;
23328;SDS011;11836;51.050;3.716;2023-05-10T03:47:22;2.60;;;1.55;;
23328;SDS011;11836;51.050;3.716;2023-05-10T03:49:48;2.05;;;1.67;;
23328;SDS011;11836;51.050;3.716;2023-05-10T03:52:13;1.70;;;1.60;;
23328;SDS011;11836;51.050;3.716;2023-05-10T03:54:39;2.97;;;2.15;;
23328;SDS011;11836;51.050;3.716;2023-05-10T03:57:05;2.33;;;2.13;;
23328;SDS011;11836;51.050;3.716;2023-05-10T03:59:30;1.40;;;1.30;;
23328;SDS011;11836;51.050;3.716;2023-05-10T04:01:56;2.17;;;1.58;;
23328;SDS011;11836;51.050;3.716;2023-05-10T04:04:22;2.30;;;1.60;;
23328;SDS011;11836;51.050;3.716;2023-05-10T04:06:48;2.00;;;1.80;;
23328;SDS011;11836;51.050;3.716;2023-05-10T04:09:14;2.22;;;2.00;;
23328;SDS011;11836;51.050;3.716;2023-05-10T04:11:40;3.10;;;1.88;;
23328;SDS011;11836;51.050;3.716;2023-05-10T04:14:05;2.22;;;2.03;;
23328;SDS011;11836;51.050;3.716;2023-05-10T04:16:31;2.45;;;1.83;;
23328;SDS011;11836;51.050;3.716;2023-05-10T04:18:57;2.30;;;1.90;;
23328;SDS011;11836;51.050;3.716;2023-05-10T04:21:22;3.03;;;2.08;;
23328;SDS011;11836;51.050;3.716;2023-05-10T04:23:48;2.13;;;1.92;;
23328;SDS011;11836;51.050;3.716;2023-05-10T04:26:14;2.88;;;2.33;;
23328;SDS011;11836;51.050;3.716;2023-05-10T04:28:39;4.60;;;2.45;;
23328;SDS011;11836;51.050;3.716;2023-05-10T04:31:06;2.50;;;2.30;;
23328;SDS011;11836;51.050;3.716;2023-05-10T04:33:33;4.93;;;2.53;;
23328;SDS011;11836;51.050;3.716;2023-05-10T04:35:59;2.90;;;1.77;;
23328;SDS011;11836;51.050;3.716;2023-05-10T04:38:31;2.58;;;1.95;;
23328;SDS011;11836;51.050;3.716;2023-05-10T04:41:07;1.92;;;1.67;;
23328;SDS011;11836;51.050;3.716;2023-05-10T04:43:33;2.67;;;2.45;;
23328;SDS011;11836;51.050;3.716;2023-05-10T04:45:59;4.60;;;2.35;;
23328;SDS011;11836;51.050;3.716;2023-05-10T04:48:25;2.65;;;2.30;;
23328;SDS011;11836;51.050;3.716;2023-05-10T04:50:50;4.32;;;3.10;;
23328;SDS011;11836;51.050;3.716;2023-05-10T04:53:17;2.75;;;1.77;;
23328;SDS011;11836;51.050;3.716;2023-05-10T04:55:42;2.03;;;1.83;;
23328;SDS011;11836;51.050;3.716;2023-05-10T04:58:08;2.17;;;1.80;;
23328;SDS011;11836;51.050;3.716;2023-05-10T05:00:34;3.40;;;2.40;;
23328;SDS011;11836;51.050;3.716;2023-05-10T05:03:00;2.80;;;2.05;;
23328;SDS011;11836;51.050;3.716;2023-05-10T05:05:25;2.67;;;2.00;;
23328;SDS011;11836;51.050;3.716;2023-05-10T05:08:00;3.63;;;2.17;;
23328;SDS011;11836;51.050;3.716;2023-05-10T05:10:26;3.55;;;2.38;;
23328;SDS011;11836;51.050;3.716;2023-05-10T05:12:52;3.20;;;2.20;;
23328;SDS011;11836;51.050;3.716;2023-05-10T05:15:17;2.28;;;2.08;;
23328;SDS011;11836;51.050;3.716;2023-05-10T05:17:43;2.20;;;1.90;;
23328;SDS011;11836;51.050;3.716;2023-05-10T05:20:10;1.80;;;1.67;;
23328;SDS011;11836;51.050;3.716;2023-05-10T05:22:36;2.53;;;1.98;;
23328;SDS011;11836;51.050;3.716;2023-05-10T05:25:02;2.47;;;1.98;;
23328;SDS011;11836;51.050;3.716;2023-05-10T05:27:28;1.92;;;1.50;;
23328;SDS011;11836;51.050;3.716;2023-05-10T05:29:55;1.95;;;1.75;;
23328;SDS011;11836;51.050;3.716;2023-05-10T05:32:22;2.20;;;2.00;;
23328;SDS011;11836;51.050;3.716;2023-05-10T05:34:51;2.17;;;1.98;;
23328;SDS011;11836;51.050;3.716;2023-05-10T05:37:17;2.00;;;1.80;;
23328;SDS011;11836;51.050;3.716;2023-05-10T05:39:44;2.47;;;2.05;;
23328;SDS011;11836;51.050;3.716;2023-05-10T05:42:11;4.22;;;2.20;;
23328;SDS011;11836;51.050;3.716;2023-05-10T05:44:46;7.82;;;2.90;;
23328;SDS011;11836;51.050;3.716;2023-05-10T05:47:22;7.03;;;3.00;;
23328;SDS011;11836;51.050;3.716;2023-05-10T05:49:47;11.27;;;3.05;;
23328;SDS011;11836;51.050;3.716;2023-05-10T05:52:13;4.53;;;2.83;;
23328;SDS011;11836;51.050;3.716;2023-05-10T05:54:39;4.30;;;2.65;;
23328;SDS011;11836;51.050;3.716;2023-05-10T05:57:05;5.43;;;3.13;;
23328;SDS011;11836;51.050;3.716;2023-05-10T05:59:31;3.58;;;2.40;;
23328;SDS011;11836;51.050;3.716;2023-05-10T06:02:00;5.43;;;2.70;;
23328;SDS011;11836;51.050;3.716;2023-05-10T06:04:25;2.70;;;2.42;;
23328;SDS011;11836;51.050;3.716;2023-05-10T06:06:51;2.75;;;2.17;;
23328;SDS011;11836;51.050;3.716;2023-05-10T06:09:17;5.07;;;3.15;;
23328;SDS011;11836;51.050;3.716;2023-05-10T06:11:43;3.83;;;2.97;;
23328;SDS011;11836;51.050;3.716;2023-05-10T06:14:08;8.00;;;3.25;;
23328;SDS011;11836;51.050;3.716;2023-05-10T06:16:36;4.18;;;2.75;;
23328;SDS011;11836;51.050;3.716;2023-05-10T06:19:02;4.35;;;2.90;;
23328;SDS011;11836;51.050;3.716;2023-05-10T06:21:28;3.38;;;2.92;;
23328;SDS011;11836;51.050;3.716;2023-05-10T06:23:53;4.90;;;2.90;;
23328;SDS011;11836;51.050;3.716;2023-05-10T06:26:19;3.88;;;2.65;;
23328;SDS011;11836;51.050;3.716;2023-05-10T06:28:45;3.25;;;2.35;;
23328;SDS011;11836;51.050;3.716;2023-05-10T06:31:11;5.28;;;2.90;;
23328;SDS011;11836;51.050;3.716;2023-05-10T06:33:37;3.17;;;2.38;;
23328;SDS011;11836;51.050;3.716;2023-05-10T06:36:03;3.55;;;2.60;;
23328;SDS011;11836;51.050;3.716;2023-05-10T06:38:29;3.25;;;2.40;;
23328;SDS011;11836;51.050;3.716;2023-05-10T06:40:54;4.15;;;2.80;;
23328;SDS011;11836;51.050;3.716;2023-05-10T06:43:20;4.43;;;2.92;;
23328;SDS011;11836;51.050;3.716;2023-05-10T06:45:47;3.67;;;2.92;;
23328;SDS011;11836;51.050;3.716;2023-05-10T06:48:13;3.40;;;2.63;;
23328;SDS011;11836;51.050;3.716;2023-05-10T06:50:39;4.00;;;2.70;;
23328;SDS011;11836;51.050;3.716;2023-05-10T06:53:04;4.25;;;2.60;;
23328;SDS011;11836;51.050;3.716;2023-05-10T06:55:30;3.45;;;2.60;;
23328;SDS011;11836;51.050;3.716;2023-05-10T06:57:56;2.97;;;2.33;;
23328;SDS011;11836;51.050;3.716;2023-05-10T07:00:21;3.15;;;2.63;;
23328;SDS011;11836;51.050;3.716;2023-05-10T07:02:47;4.22;;;2.53;;
23328;SDS011;11836;51.050;3.716;2023-05-10T07:05:13;3.35;;;2.40;;
23328;SDS011;11836;51.050;3.716;2023-05-10T07:07:40;3.42;;;2.58;;
23328;SDS011;11836;51.050;3.716;2023-05-10T07:10:07;2.85;;;2.10;;
23328;SDS011;11836;51.050;3.716;2023-05-10T07:12:32;2.75;;;2.30;;
23328;SDS011;11836;51.050;3.716;2023-05-10T07:14:58;2.90;;;2.20;;
23328;SDS011;11836;51.050;3.716;2023-05-10T07:17:24;3.53;;;2.40;;
23328;SDS011;11836;51.050;3.716;2023-05-10T07:19:50;3.22;;;2.20;;
23328;SDS011;11836;51.050;3.716;2023-05-10T07:22:16;3.95;;;2.47;;
23328;SDS011;11836;51.050;3.716;2023-05-10T07:24:42;3.28;;;2.53;;
23328;SDS011;11836;51.050;3.716;2023-05-10T07:27:07;4.20;;;2.47;;
23328;SDS011;11836;51.050;3.716;2023-05-10T07:29:34;4.25;;;2.30;;
23328;SDS011;11836;51.050;3.716;2023-05-10T07:32:03;3.75;;;2.60;;
23328;SDS011;11836;51.050;3.716;2023-05-10T07:34:29;6.32;;;2.80;;
23328;SDS011;11836;51.050;3.716;2023-05-10T07:36:56;4.82;;;2.72;;
23328;SDS011;11836;51.050;3.716;2023-05-10T07:39:23;3.03;;;2.58;;
23328;SDS011;11836;51.050;3.716;2023-05-10T07:41:55;3.92;;;2.58;;
23328;SDS011;11836;51.050;3.716;2023-05-10T07:44:34;3.58;;;2.63;;
23328;SDS011;11836;51.050;3.716;2023-05-10T07:46:59;3.92;;;2.65;;
23328;SDS011;11836;51.050;3.716;2023-05-10T07:49:25;3.50;;;2.78;;
23328;SDS011;11836;51.050;3.716;2023-05-10T07:51:51;2.95;;;2.58;;
23328;SDS011;11836;51.050;3.716;2023-05-10T07:54:17;4.03;;;2.78;;
23328;SDS011;11836;51.050;3.716;2023-05-10T07:56:42;3.20;;;2.90;;
23328;SDS011;11836;51.050;3.716;2023-05-10T07:59:15;4.63;;;2.97;;
23328;SDS011;11836;51.050;3.716;2023-05-10T08:01:43;3.70;;;3.10;;
23328;SDS011;11836;51.050;3.716;2023-05-10T08:04:09;5.43;;;2.85;;
23328;SDS011;11836;51.050;3.716;2023-05-10T08:06:34;5.35;;;2.95;;
23328;SDS011;11836;51.050;3.716;2023-05-10T08:09:03;3.75;;;3.10;;
23328;SDS011;11836;51.050;3.716;2023-05-10T08:11:32;3.20;;;2.90;;
23328;SDS011;11836;51.050;3.716;2023-05-10T08:13:57;3.70;;;3.10;;
23328;SDS011;11836;51.050;3.716;2023-05-10T08:16:23;3.15;;;2.85;;
23328;SDS011;11836;51.050;3.716;2023-05-10T08:18:49;3.72;;;2.90;;
23328;SDS011;11836;51.050;3.716;2023-05-10T08:21:15;3.85;;;3.30;;
23328;SDS011;11836;51.050;3.716;2023-05-10T08:23:41;3.83;;;2.80;;
23328;SDS011;11836;51.050;3.716;2023-05-10T08:26:08;3.72;;;2.85;;
23328;SDS011;11836;51.050;3.716;2023-05-10T08:28:34;4.13;;;2.70;;
23328;SDS011;11836;51.050;3.716;2023-05-10T08:31:00;3.65;;;2.92;;
23328;SDS011;11836;51.050;3.716;2023-05-10T08:33:25;4.63;;;2.95;;
23328;SDS011;11836;51.050;3.716;2023-05-10T08:35:51;4.93;;;3.28;;
23328;SDS011;11836;51.050;3.716;2023-05-10T08:38:17;3.70;;;3.10;;
23328;SDS011;11836;51.050;3.716;2023-05-10T08:40:43;3.25;;;2.92;;
23328;SDS011;11836;51.050;3.716;2023-05-10T08:43:11;3.38;;;2.83;;
23328;SDS011;11836;51.050;3.716;2023-05-10T08:45:40;4.43;;;2.97;;
23328;SDS011;11836;51.050;3.716;2023-05-10T08:48:10;3.72;;;3.35;;
23328;SDS011;11836;51.050;3.716;2023-05-10T08:50:49;3.33;;;2.70;;
23328;SDS011;11836;51.050;3.716;2023-05-10T08:53:18;4.38;;;3.53;;
23328;SDS011;11836;51.050;3.716;2023-05-10T08:55:46;5.30;;;3.10;;
23328;SDS011;11836;51.050;3.716;2023-05-10T08:58:12;4.32;;;3.22;;
23328;SDS011;11836;51.050;3.716;2023-05-10T09:00:38;4.47;;;3.40;;
23328;SDS011;11836;51.050;3.716;2023-05-10T09:03:05;3.42;;;3.13;;
23328;SDS011;11836;51.050;3.716;2023-05-10T09:05:31;5.97;;;3.40;;
23328;SDS011;11836;51.050;3.716;2023-05-10T09:07:57;3.05;;;2.75;;
23328;SDS011;11836;51.050;3.716;2023-05-10T09:10:25;3.58;;;3.28;;
23328;SDS011;11836;51.050;3.716;2023-05-10T09:12:53;3.33;;;3.03;;
23328;SDS011;11836;51.050;3.716;2023-05-10T09:15:21;3.80;;;2.90;;
23328;SDS011;11836;51.050;3.716;2023-05-10T09:17:47;4.20;;;3.30;;
23328;SDS011;11836;51.050;3.716;2023-05-10T09:20:14;4.10;;;3.35;;
23328;SDS011;11836;51.050;3.716;2023-05-10T09:22:42;3.65;;;2.80;;
23328;SDS011;11836;51.050;3.716;2023-05-10T09:25:14;3.85;;;2.88;;
23328;SDS011;11836;51.050;3.716;2023-05-10T09:27:43;4.28;;;3.00;;
23328;SDS011;11836;51.050;3.716;2023-05-10T09:30:17;3.78;;;3.05;;
23328;SDS011;11836;51.050;3.716;2023-05-10T09:32:52;3.45;;;3.08;;
23328;SDS011;11836;51.050;3.716;2023-05-10T09:35:20;3.85;;;2.75;;
23328;SDS011;11836;51.050;3.716;2023-05-10T09:37:48;2.97;;;2.70;;
23328;SDS011;11836;51.050;3.716;2023-05-10T09:40:17;3.33;;;3.03;;
23328;SDS011;11836;51.050;3.716;2023-05-10T09:42:51;4.53;;;2.80;;
23328;SDS011;11836;51.050;3.716;2023-05-10T09:45:19;3.05;;;2.75;;
23328;SDS011;11836;51.050;3.716;2023-05-10T09:47:48;3.60;;;2.40;;
23328;SDS011;11836;51.050;3.716;2023-05-10T09:50:14;7.13;;;3.13;;
23328;SDS011;11836;51.050;3.716;2023-05-10T09:55:22;4.60;;;2.90;;
23328;SDS011;11836;51.050;3.716;2023-05-10T09:57:58;2.92;;;2.38;;
23328;SDS011;11836;51.050;3.716;2023-05-10T10:00:25;3.05;;;2.70;;
23328;SDS011;11836;51.050;3.716;2023-05-10T10:02:56;3.10;;;2.70;;
23328;SDS011;11836;51.050;3.716;2023-05-10T10:05:29;4.13;;;2.78;;
23328;SDS011;11836;51.050;3.716;2023-05-10T10:08:02;3.92;;;2.60;;
23328;SDS011;11836;51.050;3.716;2023-05-10T10:10:38;2.88;;;2.58;;
23328;SDS011;11836;51.050;3.716;2023-05-10T10:13:10;3.28;;;2.83;;
23328;SDS011;11836;51.050;3.716;2023-05-10T10:15:35;3.45;;;2.67;;
23328;SDS011;11836;51.050;3.716;2023-05-10T10:18:02;2.90;;;2.60;;
23328;SDS011;11836;51.050;3.716;2023-05-10T10:20:35;3.15;;;2.33;;
23328;SDS011;11836;51.050;3.716;2023-05-10T10:23:02;2.50;;;2.30;;
23328;SDS011;11836;51.050;3.716;2023-05-10T10:25:28;4.43;;;3.00;;
23328;SDS011;11836;51.050;3.716;2023-05-10T10:30:49;4.47;;;2.78;;
23328;SDS011;11836;51.050;3.716;2023-05-10T10:36:22;2.45;;;2.13;;
23328;SDS011;11836;51.050;3.716;2023-05-10T10:41:30;2.33;;;2.10;;
23328;SDS011;11836;51.050;3.716;2023-05-10T10:47:04;2.65;;;2.35;;
23328;SDS011;11836;51.050;3.716;2023-05-10T10:49:32;3.05;;;2.60;;
23328;SDS011;11836;51.050;3.716;2023-05-10T10:57:49;3.00;;;2.28;;
23328;SDS011;11836;51.050;3.716;2023-05-10T11:05:49;3.08;;;2.75;;
23328;SDS011;11836;51.050;3.716;2023-05-10T11:16:40;2.53;;;2.20;;
23328;SDS011;11836;51.050;3.716;2023-05-10T11:19:09;3.67;;;2.63;;
23328;SDS011;11836;51.050;3.716;2023-05-10T11:21:46;2.78;;;2.58;;
23328;SDS011;11836;51.050;3.716;2023-05-10T11:24:32;2.85;;;2.55;;
23328;SDS011;11836;51.050;3.716;2023-05-10T11:26:59;2.70;;;2.30;;
23328;SDS011;11836;51.050;3.716;2023-05-10T11:29:26;3.08;;;2.78;;
23328;SDS011;11836;51.050;3.716;2023-05-10T11:31:51;3.03;;;2.30;;
23328;SDS011;11836;51.050;3.716;2023-05-10T11:34:24;2.42;;;1.83;;
23328;SDS011;11836;51.050;3.716;2023-05-10T11:36:57;2.50;;;2.30;;
23328;SDS011;11836;51.050;3.716;2023-05-10T11:39:29;2.60;;;2.40;;
23328;SDS011;11836;51.050;3.716;2023-05-10T11:41:56;2.95;;;2.58;;
23328;SDS011;11836;51.050;3.716;2023-05-10T11:45:01;2.85;;;2.47;;
23328;SDS011;11836;51.050;3.716;2023-05-10T11:47:48;3.10;;;2.30;;
23328;SDS011;11836;51.050;3.716;2023-05-10T11:50:14;2.88;;;2.33;;
23328;SDS011;11836;51.050;3.716;2023-05-10T11:52:40;3.75;;;2.33;;
23328;SDS011;11836;51.050;3.716;2023-05-10T11:55:08;2.38;;;2.00;;
23328;SDS011;11836;51.050;3.716;2023-05-10T11:57:34;2.40;;;2.20;;
23328;SDS011;11836;51.050;3.716;2023-05-10T12:00:00;3.13;;;2.20;;
23328;SDS011;11836;51.050;3.716;2023-05-10T12:02:28;2.35;;;2.13;;
23328;SDS011;11836;51.050;3.716;2023-05-10T12:04:55;2.53;;;2.33;;
23328;SDS011;11836;51.050;3.716;2023-05-10T12:07:21;2.63;;;2.33;;
23328;SDS011;11836;51.050;3.716;2023-05-10T12:10:06;2.65;;;2.45;;
23328;SDS011;11836;51.050;3.716;2023-05-10T12:15:34;2.88;;;2.58;;
23328;SDS011;11836;51.050;3.716;2023-05-10T12:17:59;2.45;;;2.25;;
23328;SDS011;11836;51.050;3.716;2023-05-10T12:20:28;2.70;;;2.42;;
23328;SDS011;11836;51.050;3.716;2023-05-10T12:22:55;3.50;;;2.33;;
23328;SDS011;11836;51.050;3.716;2023-05-10T12:25:22;3.03;;;2.10;;
23328;SDS011;11836;51.050;3.716;2023-05-10T12:27:53;4.10;;;2.50;;
23328;SDS011;11836;51.050;3.716;2023-05-10T12:30:23;2.67;;;2.47;;
23328;SDS011;11836;51.050;3.716;2023-05-10T12:33:09;2.83;;;2.47;;
23328;SDS011;11836;51.050;3.716;2023-05-10T12:35:50;2.90;;;2.53;;
23328;SDS011;11836;51.050;3.716;2023-05-10T12:38:37;2.58;;;2.38;;
23328;SDS011;11836;51.050;3.716;2023-05-10T12:41:08;2.78;;;2.40;;
23328;SDS011;11836;51.050;3.716;2023-05-10T12:43:54;2.58;;;2.38;;
23328;SDS011;11836;51.050;3.716;2023-05-10T12:46:20;2.45;;;2.17;;
23328;SDS011;11836;51.050;3.716;2023-05-10T12:48:45;2.55;;;2.35;;
23328;SDS011;11836;51.050;3.716;2023-05-10T12:51:14;3.75;;;3.38;;
23328;SDS011;11836;51.050;3.716;2023-05-10T12:53:45;4.70;;;2.60;;
23328;SDS011;11836;51.050;3.716;2023-05-10T12:58:43;2.50;;;2.30;;
23328;SDS011;11836;51.050;3.716;2023-05-10T13:01:13;2.67;;;2.40;;
23328;SDS011;11836;51.050;3.716;2023-05-10T13:03:39;2.50;;;2.30;;
23328;SDS011;11836;51.050;3.716;2023-05-10T13:06:05;2.60;;;2.40;;
23328;SDS011;11836;51.050;3.716;2023-05-10T13:08:31;4.43;;;2.40;;
23328;SDS011;11836;51.050;3.716;2023-05-10T13:11:01;3.75;;;2.50;;
23328;SDS011;11836;51.050;3.716;2023-05-10T13:13:28;3.25;;;2.67;;
23328;SDS011;11836;51.050;3.716;2023-05-10T13:15:53;2.72;;;2.30;;
23328;SDS011;11836;51.050;3.716;2023-05-10T13:18:19;2.63;;;2.42;;
23328;SDS011;11836;51.050;3.716;2023-05-10T13:20:46;2.42;;;2.22;;
23328;SDS011;11836;51.050;3.716;2023-05-10T13:23:12;2.40;;;2.20;;
23328;SDS011;11836;51.050;3.716;2023-05-10T13:25:38;2.78;;;2.53;;
23328;SDS011;11836;51.050;3.716;2023-05-10T13:28:10;3.13;;;2.40;;
23328;SDS011;11836;51.050;3.716;2023-05-10T13:30:36;3.42;;;2.53;;
23328;SDS011;11836;51.050;3.716;2023-05-10T13:33:01;2.92;;;2.63;;
23328;SDS011;11836;51.050;3.716;2023-05-10T13:35:28;4.40;;;2.65;;
23328;SDS011;11836;51.050;3.716;2023-05-10T13:37:56;2.67;;;2.30;;
23328;SDS011;11836;51.050;3.716;2023-05-10T13:40:24;2.60;;;2.40;;
23328;SDS011;11836;51.050;3.716;2023-05-10T13:45:22;3.03;;;2.47;;
23328;SDS011;11836;51.050;3.716;2023-05-10T13:47:48;2.50;;;2.20;;
23328;SDS011;11836;51.050;3.716;2023-05-10T13:50:13;2.50;;;2.30;;
23328;SDS011;11836;51.050;3.716;2023-05-10T13:52:39;2.60;;;2.40;;
23328;SDS011;11836;51.050;3.716;2023-05-10T13:55:05;3.08;;;2.67;;
23328;SDS011;11836;51.050;3.716;2023-05-10T13:57:31;3.78;;;2.40;;
23328;SDS011;11836;51.050;3.716;2023-05-10T13:59:57;3.70;;;2.30;;
23328;SDS011;11836;51.050;3.716;2023-05-10T14:02:23;4.40;;;2.70;;
23328;SDS011;11836;51.050;3.716;2023-05-10T14:04:49;4.32;;;2.55;;
23328;SDS011;11836;51.050;3.716;2023-05-10T14:07:15;4.10;;;2.47;;
23328;SDS011;11836;51.050;3.716;2023-05-10T14:09:40;4.88;;;2.42;;
23328;SDS011;11836;51.050;3.716;2023-05-10T14:12:06;5.07;;;2.60;;
23328;SDS011;11836;51.050;3.716;2023-05-10T14:14:32;2.88;;;2.42;;
23328;SDS011;11836;51.050;3.716;2023-05-10T14:16:57;2.85;;;2.50;;
23328;SDS011;11836;51.050;3.716;2023-05-10T14:19:24;2.20;;;2.00;;
23328;SDS011;11836;51.050;3.716;2023-05-10T14:21:50;2.75;;;2.10;;
23328;SDS011;11836;51.050;3.716;2023-05-10T14:24:16;3.10;;;2.22;;
23328;SDS011;11836;51.050;3.716;2023-05-10T14:26:42;2.60;;;2.40;;
23328;SDS011;11836;51.050;3.716;2023-05-10T14:29:11;3.17;;;2.15;;
23328;SDS011;11836;51.050;3.716;2023-05-10T14:31:36;2.78;;;2.47;;
23328;SDS011;11836;51.050;3.716;2023-05-10T14:34:02;2.38;;;2.17;;
23328;SDS011;11836;51.050;3.716;2023-05-10T14:36:28;3.28;;;2.03;;
23328;SDS011;11836;51.050;3.716;2023-05-10T14:41:56;2.90;;;2.10;;
23328;SDS011;11836;51.050;3.716;2023-05-10T14:44:23;2.58;;;2.33;;
23328;SDS011;11836;51.050;3.716;2023-05-10T14:46:49;2.50;;;2.30;;
23328;SDS011;11836;51.050;3.716;2023-05-10T14:49:15;2.70;;;2.33;;
23328;SDS011;11836;51.050;3.716;2023-05-10T14:51:40;4.13;;;2.15;;
23328;SDS011;11836;51.050;3.716;2023-05-10T14:54:06;2.63;;;1.92;;
23328;SDS011;11836;51.050;3.716;2023-05-10T14:56:32;2.38;;;2.17;;
23328;SDS011;11836;51.050;3.716;2023-05-10T14:58:57;2.47;;;2.20;;
23328;SDS011;11836;51.050;3.716;2023-05-10T15:01:24;2.42;;;2.22;;
23328;SDS011;11836;51.050;3.716;2023-05-10T15:03:50;2.47;;;2.13;;
23328;SDS011;11836;51.050;3.716;2023-05-10T15:06:17;2.40;;;2.20;;
23328;SDS011;11836;51.050;3.716;2023-05-10T15:08:50;2.85;;;2.17;;
23328;SDS011;11836;51.050;3.716;2023-05-10T15:11:19;2.35;;;2.00;;
23328;SDS011;11836;51.050;3.716;2023-05-10T15:13:47;4.13;;;2.10;;
23328;SDS011;11836;51.050;3.716;2023-05-10T15:16:15;3.13;;;2.30;;
23328;SDS011;11836;51.050;3.716;2023-05-10T15:18:41;2.25;;;2.03;;
23328;SDS011;11836;51.050;3.716;2023-05-10T15:21:10;2.50;;;2.22;;
23328;SDS011;11836;51.050;3.716;2023-05-10T15:23:55;2.30;;;2.10;;
23328;SDS011;11836;51.050;3.716;2023-05-10T15:26:26;2.28;;;2.08;;
23328;SDS011;11836;51.050;3.716;2023-05-10T15:28:53;2.17;;;1.98;;
23328;SDS011;11836;51.050;3.716;2023-05-10T15:31:19;3.05;;;2.35;;
23328;SDS011;11836;51.050;3.716;2023-05-10T15:33:45;2.38;;;2.10;;
23328;SDS011;11836;51.050;3.716;2023-05-10T15:39:00;3.63;;;2.40;;
23328;SDS011;11836;51.050;3.716;2023-05-10T15:41:28;2.22;;;2.00;;
23328;SDS011;11836;51.050;3.716;2023-05-10T15:44:06;2.00;;;1.90;;
23328;SDS011;11836;51.050;3.716;2023-05-10T15:46:38;2.17;;;1.90;;
23328;SDS011;11836;51.050;3.716;2023-05-10T15:49:48;3.22;;;1.85;;
23328;SDS011;11836;51.050;3.716;2023-05-10T15:52:15;2.10;;;1.90;;
23328;SDS011;11836;51.050;3.716;2023-05-10T15:55:00;2.78;;;1.80;;
23328;SDS011;11836;51.050;3.716;2023-05-10T15:57:26;2.03;;;1.83;;
23328;SDS011;11836;51.050;3.716;2023-05-10T15:59:52;2.22;;;1.90;;
23328;SDS011;11836;51.050;3.716;2023-05-10T16:02:18;2.88;;;1.88;;
23328;SDS011;11836;51.050;3.716;2023-05-10T16:04:44;2.30;;;2.10;;
23328;SDS011;11836;51.050;3.716;2023-05-10T16:07:09;2.15;;;1.80;;